Time;durP1;ratioP1;P1;durP2;ratioP2;P2;SDS_P1;SDS_P2;PMS_P1;PMS_P2;Temp;Humidity;BMP_temperature;BMP_pressure;BME280_temperature;BME280_humidity;BME280_pressure;Samples;Min_cycle;Max_cycle;Signal;HPM_P1;HPM_P2
2022/09/28 00:01:15;;;;;;;4.20;1.98;;;12.50;99.90;;;;;;6069234;23;20235;-84
2022/09/28 00:03:44;;;;;;;1.92;1.70;;;12.40;99.90;;;;;;6070074;23;20212;-84
2022/09/28 00:06:14;;;;;;;2.20;2.03;;;12.40;99.90;;;;;;6069633;23;20203;-84
2022/09/28 00:08:41;;;;;;;1.55;1.45;;;12.50;99.90;;;;;;6066459;23;20212;-78
2022/09/28 00:11:12;;;;;;;2.45;2.17;;;12.50;99.90;;;;;;6068200;23;20512;-78
2022/09/28 00:13:40;;;;;;;1.77;1.65;;;12.50;99.90;;;;;;6070138;23;20310;-84
2022/09/28 00:16:09;;;;;;;2.78;2.10;;;12.50;99.90;;;;;;6070114;23;20216;-78
2022/09/28 00:18:38;;;;;;;5.05;3.17;;;12.50;99.90;;;;;;6069584;23;20660;-77
2022/09/28 00:21:08;;;;;;;9.10;6.53;;;12.50;99.90;;;;;;6053423;23;20271;-78
2022/09/28 00:24:11;;;;;;;8.70;5.97;;;12.50;99.90;;;;;;6069185;23;20215;-78
2022/09/28 00:26:26;;;;;;;4.10;2.92;;;12.50;99.90;;;;;;6069769;23;20707;-78
2022/09/28 00:28:54;;;;;;;3.03;2.72;;;12.50;99.90;;;;;;6069139;23;20199;-78
2022/09/28 00:31:22;;;;;;;3.22;2.65;;;12.50;99.90;;;;;;6068490;23;20212;-83
2022/09/28 00:33:50;;;;;;;2.20;2.00;;;12.50;99.90;;;;;;6070292;23;20215;-84
2022/09/28 00:36:17;;;;;;;3.40;2.70;;;12.40;99.90;;;;;;6069491;23;20670;-78
2022/09/28 00:38:49;;;;;;;2.25;2.05;;;12.40;99.90;;;;;;6068342;23;20275;-78
2022/09/28 00:41:16;;;;;;;2.20;2.00;;;12.50;99.90;;;;;;6069370;23;20204;-84
2022/09/28 00:43:43;;;;;;;3.20;3.00;;;12.50;99.90;;;;;;6069200;23;20219;-84
2022/09/28 00:46:18;;;;;;;2.55;2.35;;;12.50;99.90;;;;;;6069946;23;20322;-84
2022/09/28 00:48:51;;;;;;;2.50;2.33;;;12.40;99.90;;;;;;6054350;23;20204;-78
2022/09/28 00:51:18;;;;;;;3.25;2.95;;;12.40;99.90;;;;;;6070092;23;20275;-85
2022/09/28 00:53:48;;;;;;;2.90;2.60;;;12.40;99.90;;;;;;6069346;23;20621;-78
2022/09/28 00:56:19;;;;;;;2.88;2.60;;;12.40;99.90;;;;;;6069382;23;20208;-84
2022/09/28 00:58:50;;;;;;;2.70;2.50;;;12.40;99.90;;;;;;6068566;23;20271;-84
2022/09/28 01:01:17;;;;;;;3.72;2.60;;;12.40;99.90;;;;;;6069210;23;20234;-83
2022/09/28 01:03:47;;;;;;;2.70;2.20;;;12.40;99.90;;;;;;6068903;23;20275;-83
2022/09/28 01:06:19;;;;;;;3.63;2.50;;;12.40;99.90;;;;;;6069791;23;20239;-84
2022/09/28 01:08:51;;;;;;;2.80;2.60;;;12.40;99.90;;;;;;6067193;23;20541;-84
2022/09/28 01:11:19;;;;;;;3.05;2.75;;;12.40;99.90;;;;;;6069492;23;20576;-84
2022/09/28 01:13:48;;;;;;;3.35;3.05;;;12.30;99.90;;;;;;6067986;23;20204;-84
2022/09/28 01:16:23;;;;;;;2.67;2.47;;;12.30;99.90;;;;;;6069896;23;20645;-84
2022/09/28 01:18:59;;;;;;;4.20;3.00;;;12.40;99.90;;;;;;6069234;23;20208;-84
2022/09/28 01:21:26;;;;;;;2.85;2.65;;;12.30;99.90;;;;;;6069746;23;20698;-85
2022/09/28 01:24:25;;;;;;;2.90;2.70;;;12.30;99.90;;;;;;6068320;23;20287;-78
2022/09/28 01:27:01;;;;;;;5.85;2.58;;;12.30;99.90;;;;;;6051779;23;20274;-84
2022/09/28 01:29:38;;;;;;;2.97;2.67;;;12.30;99.90;;;;;;6069361;23;20200;-84
2022/09/28 01:32:18;;;;;;;3.65;3.30;;;12.30;99.90;;;;;;6068392;23;20214;-80
2022/09/28 01:34:54;;;;;;;2.83;2.60;;;12.30;99.90;;;;;;6068264;23;20231;-78
2022/09/28 01:37:24;;;;;;;3.55;3.22;;;12.30;99.90;;;;;;6069035;23;20195;-85
2022/09/28 01:39:54;;;;;;;3.40;3.13;;;12.30;99.90;;;;;;6068265;23;20204;-78
2022/09/28 01:42:26;;;;;;;4.57;2.45;;;12.30;99.90;;;;;;6068469;23;20323;-79
2022/09/28 01:44:54;;;;;;;2.70;2.50;;;12.30;99.90;;;;;;6066714;23;20215;-78
2022/09/28 01:47:24;;;;;;;2.50;2.30;;;12.30;99.90;;;;;;6069217;23;20204;-85
2022/09/28 01:49:58;;;;;;;4.68;2.60;;;12.30;99.90;;;;;;6067772;23;20259;-85
2022/09/28 01:52:29;;;;;;;3.10;2.33;;;12.30;99.90;;;;;;6054605;23;20509;-84
2022/09/28 01:55:00;;;;;;;2.25;2.05;;;12.30;99.90;;;;;;6067439;23;20208;-79
2022/09/28 01:57:34;;;;;;;2.45;2.25;;;12.30;99.90;;;;;;6069309;23;20545;-85
2022/09/28 02:00:06;;;;;;;2.60;2.40;;;12.20;99.90;;;;;;6068333;23;20640;-84
2022/09/28 02:02:40;;;;;;;2.70;2.50;;;12.30;99.90;;;;;;6068987;23;20212;-78
2022/09/28 02:05:14;;;;;;;3.10;2.80;;;12.30;99.90;;;;;;6066474;23;20200;-84
2022/09/28 02:07:47;;;;;;;2.20;2.00;;;12.30;99.90;;;;;;6066352;23;20236;-78
2022/09/28 02:10:19;;;;;;;3.53;2.20;;;12.30;99.90;;;;;;6067489;23;20563;-84
2022/09/28 02:12:52;;;;;;;2.80;2.60;;;12.20;99.90;;;;;;6068980;23;20267;-84
2022/09/28 02:15:23;;;;;;;2.90;2.70;;;12.20;99.90;;;;;;6068747;23;20201;-85
2022/09/28 02:17:50;;;;;;;2.45;2.25;;;12.20;99.90;;;;;;6068731;23;20271;-79
2022/09/28 02:20:18;;;;;;;2.67;2.45;;;12.20;99.90;;;;;;6067363;23;20204;-85
2022/09/28 02:22:49;;;;;;;2.90;2.70;;;12.20;99.90;;;;;;6068257;23;20208;-85
2022/09/28 02:25:26;;;;;;;2.97;2.78;;;12.10;99.90;;;;;;6067761;23;20287;-84
2022/09/28 02:28:00;;;;;;;3.33;2.40;;;12.10;99.90;;;;;;6068514;23;20196;-79
2022/09/28 02:30:30;;;;;;;3.08;2.88;;;12.10;99.90;;;;;;6066905;23;20276;-78
2022/09/28 02:33:03;;;;;;;2.97;2.78;;;12.10;99.90;;;;;;6068155;23;20204;-79
2022/09/28 02:35:30;;;;;;;4.05;3.65;;;12.10;99.90;;;;;;6052590;23;20601;-78
2022/09/28 02:37:57;;;;;;;3.35;3.05;;;12.10;99.90;;;;;;6068361;23;20204;-78
2022/09/28 02:40:30;;;;;;;3.80;3.50;;;12.10;99.90;;;;;;6067588;23;20241;-84
2022/09/28 02:43:09;;;;;;;4.03;3.05;;;12.10;99.90;;;;;;6067837;23;20205;-78
2022/09/28 02:45:53;;;;;;;4.03;3.58;;;12.20;99.90;;;;;;6067632;23;20972;-78
2022/09/28 02:48:35;;;;;;;3.05;2.75;;;12.20;99.90;;;;;;6067626;23;20557;-84
2022/09/28 02:51:09;;;;;;;3.35;3.05;;;12.10;99.90;;;;;;6068611;23;20275;-84
2022/09/28 02:53:59;;;;;;;3.95;3.65;;;12.20;99.90;;;;;;6067852;23;20286;-84
2022/09/28 02:56:46;;;;;;;3.92;3.63;;;12.20;99.90;;;;;;6067906;23;20200;-84
2022/09/28 02:59:28;;;;;;;4.30;3.90;;;12.10;99.90;;;;;;6067592;23;20263;-79
2022/09/28 03:02:02;;;;;;;3.95;3.65;;;12.10;99.90;;;;;;6067739;23;20264;-84
2022/09/28 03:04:37;;;;;;;4.20;3.80;;;12.10;99.90;;;;;;6051240;23;20239;-79
2022/09/28 03:07:11;;;;;;;4.65;4.35;;;12.10;99.90;;;;;;6067897;23;20200;-84
2022/09/28 03:09:43;;;;;;;4.50;3.90;;;12.10;99.90;;;;;;6067932;23;20228;-84
2022/09/28 03:12:13;;;;;;;3.72;3.42;;;12.10;99.90;;;;;;6068658;23;20569;-84
2022/09/28 03:14:56;;;;;;;4.50;4.10;;;12.10;99.90;;;;;;6055744;23;20263;-84
2022/09/28 03:17:22;;;;;;;5.93;4.18;;;12.00;99.90;;;;;;6068607;23;20259;-84
2022/09/28 03:19:49;;;;;;;4.65;4.20;;;12.00;99.90;;;;;;6067312;23;20208;-84
2022/09/28 03:22:16;;;;;;;4.68;4.00;;;12.00;99.90;;;;;;6068279;23;20208;-84
2022/09/28 03:24:43;;;;;;;4.57;4.07;;;12.00;99.90;;;;;;6068922;23;20291;-83
2022/09/28 03:27:10;;;;;;;4.72;4.20;;;12.00;99.90;;;;;;6070789;23;20279;-84
2022/09/28 03:29:37;;;;;;;5.53;4.30;;;12.00;99.90;;;;;;6069830;23;20256;-78
2022/09/28 03:32:06;;;;;;;5.93;5.10;;;12.00;99.90;;;;;;6069711;23;20211;-78
2022/09/28 03:34:34;;;;;;;4.93;4.50;;;12.00;99.90;;;;;;6066915;23;20199;-78
2022/09/28 03:37:01;;;;;;;7.50;3.50;;;12.00;99.90;;;;;;6070231;23;20271;-78
2022/09/28 03:39:28;;;;;;;4.53;4.13;;;11.90;99.90;;;;;;6069133;23;20227;-78
2022/09/28 03:41:55;;;;;;;4.95;4.55;;;11.90;99.90;;;;;;6069572;23;20263;-77
2022/09/28 03:44:22;;;;;;;5.13;4.72;;;12.00;99.90;;;;;;6068272;23;20204;-84
2022/09/28 03:46:49;;;;;;;5.75;5.15;;;11.90;99.90;;;;;;6069764;23;20216;-85
2022/09/28 03:49:17;;;;;;;5.50;4.28;;;11.90;99.90;;;;;;6069640;23;20275;-85
2022/09/28 03:51:44;;;;;;;7.07;5.22;;;11.90;99.90;;;;;;6069385;23;20215;-84
2022/09/28 03:54:11;;;;;;;4.65;4.25;;;12.00;99.90;;;;;;6069480;23;20242;-78
2022/09/28 03:56:42;;;;;;;5.43;5.00;;;11.90;99.90;;;;;;6067928;23;20215;-83
2022/09/28 03:59:09;;;;;;;6.65;4.13;;;11.90;99.90;;;;;;6069315;23;20519;-78
2022/09/28 04:01:38;;;;;;;5.15;4.65;;;11.90;99.90;;;;;;6068812;23;20279;-78
2022/09/28 04:04:05;;;;;;;5.80;5.05;;;12.00;99.90;;;;;;6069368;23;20208;-77
2022/09/28 04:06:33;;;;;;;8.80;5.90;;;11.90;99.90;;;;;;6068925;23;20565;-83
2022/09/28 04:09:00;;;;;;;4.85;4.45;;;11.90;99.90;;;;;;6069895;23;20251;-84
2022/09/28 04:11:27;;;;;;;5.25;4.75;;;11.90;99.90;;;;;;6069360;23;20279;-83
2022/09/28 04:13:54;;;;;;;5.25;4.80;;;11.90;99.90;;;;;;6069140;23;20196;-76
2022/09/28 04:16:22;;;;;;;4.65;4.22;;;11.90;99.90;;;;;;6069533;23;20501;-77
2022/09/28 04:18:49;;;;;;;5.30;4.88;;;11.90;99.90;;;;;;6069113;23;20255;-77
2022/09/28 04:21:18;;;;;;;5.63;4.95;;;11.90;99.90;;;;;;6069691;23;20200;-78
2022/09/28 04:23:48;;;;;;;5.65;5.15;;;11.80;99.90;;;;;;6068849;23;20204;-77
2022/09/28 04:26:17;;;;;;;5.80;5.30;;;11.80;99.90;;;;;;6069305;23;20259;-77
2022/09/28 04:31:29;;;;;;;5.47;5.07;;;11.80;99.90;;;;;;6069571;23;20206;-77
2022/09/28 04:33:56;;;;;;;4.72;4.32;;;11.80;99.90;;;;;;6068884;23;20204;-78
2022/09/28 04:36:24;;;;;;;5.13;4.63;;;11.80;99.90;;;;;;6068726;23;20704;-77
2022/09/28 04:38:53;;;;;;;5.40;4.57;;;11.80;99.90;;;;;;6068737;23;20208;-78
2022/09/28 04:41:21;;;;;;;5.30;4.82;;;11.80;99.90;;;;;;6069380;23;20204;-78
2022/09/28 04:43:48;;;;;;;7.15;4.55;;;11.80;99.90;;;;;;6068260;23;20204;-78
2022/09/28 04:46:15;;;;;;;5.35;4.85;;;11.80;99.90;;;;;;6069387;23;20557;-78
2022/09/28 04:48:42;;;;;;;5.90;5.40;;;11.80;99.90;;;;;;6069610;23;20207;-78
2022/09/28 04:51:10;;;;;;;5.80;4.55;;;11.80;99.90;;;;;;6070204;23;20200;-83
2022/09/28 04:53:37;;;;;;;5.38;4.47;;;11.80;99.90;;;;;;6069679;23;20641;-83
2022/09/28 04:56:07;;;;;;;8.02;5.32;;;11.80;99.90;;;;;;6069440;23;20232;-83
2022/09/28 04:58:35;;;;;;;5.18;4.75;;;11.80;99.90;;;;;;6070972;23;20656;-84
2022/09/28 05:01:04;;;;;;;6.28;5.50;;;11.80;99.90;;;;;;6069639;23;20497;-84
2022/09/28 05:03:31;;;;;;;5.65;5.15;;;11.70;99.90;;;;;;6068938;23;20568;-82
2022/09/28 05:05:59;;;;;;;6.97;5.57;;;11.80;99.90;;;;;;6068637;23;20346;-84
2022/09/28 05:08:27;;;;;;;5.57;5.13;;;11.80;99.90;;;;;;6069122;23;20216;-84
2022/09/28 05:10:58;;;;;;;5.05;4.55;;;11.80;99.90;;;;;;6068515;23;20208;-84
2022/09/28 05:13:27;;;;;;;6.15;5.57;;;11.80;99.90;;;;;;6069047;23;20204;-84
2022/09/28 05:15:56;;;;;;;7.20;6.20;;;11.80;99.90;;;;;;6052983;23;20259;-84
2022/09/28 05:18:23;;;;;;;8.85;5.32;;;11.80;99.90;;;;;;6067976;23;20200;-78
2022/09/28 05:20:53;;;;;;;6.03;5.07;;;11.80;99.90;;;;;;6067558;23;20711;-78
2022/09/28 05:23:21;;;;;;;6.35;5.60;;;11.80;99.90;;;;;;6068934;23;20640;-78
2022/09/28 05:25:49;;;;;;;8.30;7.45;;;11.80;99.90;;;;;;6067239;23;20211;-78
2022/09/28 05:28:25;;;;;;;7.50;6.70;;;11.80;99.90;;;;;;6068347;23;20200;-84
2022/09/28 05:33:42;;;;;;;6.45;5.85;;;11.80;99.90;;;;;;6144896;23;20221;-78
2022/09/28 05:36:10;;;;;;;7.20;6.45;;;11.80;99.90;;;;;;6125588;23;20199;-78
2022/09/28 05:38:37;;;;;;;5.35;4.82;;;11.70;99.90;;;;;;6125946;23;20222;-78
2022/09/28 05:41:04;;;;;;;7.15;6.22;;;11.80;99.90;;;;;;6125970;23;20702;-84
2022/09/28 05:43:32;;;;;;;6.75;4.95;;;11.80;99.90;;;;;;6154935;23;20214;-84
2022/09/28 05:46:00;;;;;;;7.15;6.43;;;11.80;99.90;;;;;;6155162;23;20228;-83
2022/09/28 05:48:29;;;;;;;7.20;6.38;;;11.80;99.90;;;;;;6156421;23;20194;-78
2022/09/28 05:50:58;;;;;;;9.70;7.15;;;11.70;99.90;;;;;;6155377;23;20202;-79
2022/09/28 05:53:25;;;;;;;10.18;6.43;;;11.70;99.90;;;;;;6155671;23;20202;-84
2022/09/28 05:55:52;;;;;;;6.82;6.13;;;11.70;99.90;;;;;;6156583;23;20213;-84
2022/09/28 05:58:19;;;;;;;7.10;6.25;;;11.80;99.90;;;;;;6155638;23;20209;-84
2022/09/28 06:00:46;;;;;;;11.90;9.43;;;11.80;99.90;;;;;;6156145;23;20221;-84
2022/09/28 06:03:17;;;;;;;8.50;7.07;;;11.80;99.90;;;;;;6155655;23;20236;-84
2022/09/28 06:05:46;;;;;;;8.57;6.60;;;11.80;99.90;;;;;;6156096;23;20210;-84
2022/09/28 06:08:14;;;;;;;8.02;6.07;;;11.80;99.90;;;;;;6155240;23;20206;-84
2022/09/28 06:11:02;;;;;;;6.57;5.90;;;11.80;99.90;;;;;;6156201;23;20238;-84
2022/09/28 06:13:30;;;;;;;12.25;10.65;;;11.90;99.90;;;;;;6155518;23;20222;-78
2022/09/28 06:15:57;;;;;;;8.45;7.65;;;11.90;99.90;;;;;;6150127;23;20262;-82
2022/09/28 06:18:24;;;;;;;7.85;7.03;;;12.00;99.90;;;;;;6155309;23;20213;-77
2022/09/28 06:20:51;;;;;;;8.27;7.47;;;12.00;99.90;;;;;;6155505;23;20201;-82
2022/09/28 06:23:23;;;;;;;9.98;7.68;;;12.00;99.90;;;;;;6155860;23;20230;-83
2022/09/28 06:25:50;;;;;;;7.38;6.57;;;12.10;99.90;;;;;;6155315;23;20240;-83
2022/09/28 06:28:17;;;;;;;7.25;6.55;;;12.10;99.90;;;;;;6156078;23;20650;-83
2022/09/28 06:30:46;;;;;;;10.60;8.98;;;12.10;99.90;;;;;;6158281;23;20202;-82
2022/09/28 06:33:15;;;;;;;12.52;8.95;;;12.10;99.90;;;;;;6166145;23;20198;-83
2022/09/28 06:35:42;;;;;;;9.73;7.75;;;12.10;99.90;;;;;;6167984;23;20209;-78
2022/09/28 06:38:09;;;;;;;8.52;7.40;;;12.10;99.90;;;;;;6157229;23;20206;-77
2022/09/28 06:40:38;;;;;;;8.98;6.90;;;12.20;99.90;;;;;;6156526;23;20626;-78
2022/09/28 06:43:09;;;;;;;12.40;7.90;;;12.10;99.90;;;;;;6155023;23;20685;-77
2022/09/28 06:45:37;;;;;;;9.95;7.60;;;12.20;99.90;;;;;;6155378;23;20213;-76
2022/09/28 06:48:05;;;;;;;9.00;7.18;;;12.20;99.90;;;;;;6154520;23;20669;-77
2022/09/28 06:50:56;;;;;;;28.02;17.38;;;12.20;99.90;;;;;;6155943;23;20239;-77
2022/09/28 06:53:23;;;;;;;10.70;9.48;;;12.20;99.90;;;;;;6141544;23;20210;-77
2022/09/28 06:55:51;;;;;;;7.50;6.63;;;12.20;99.90;;;;;;6155943;23;20225;-83
2022/09/28 06:58:20;;;;;;;8.75;7.22;;;12.20;99.90;;;;;;6156019;23;20226;-76
2022/09/28 07:00:48;;;;;;;9.23;8.32;;;12.30;99.90;;;;;;6159050;23;20205;-77
2022/09/28 07:03:17;;;;;;;7.90;7.03;;;12.30;99.90;;;;;;6157122;23;20201;-78
2022/09/28 07:05:48;;;;;;;14.02;11.07;;;12.30;99.90;;;;;;6158875;23;20235;-78
2022/09/28 07:08:17;;;;;;;15.13;8.93;;;12.30;99.90;;;;;;6158769;23;20664;-84
2022/09/28 07:10:51;;;;;;;10.02;7.88;;;12.40;99.90;;;;;;6157630;23;20201;-84
2022/09/28 07:13:20;;;;;;;10.73;8.75;;;12.40;99.90;;;;;;6158217;23;20557;-77
2022/09/28 07:15:47;;;;;;;14.45;9.68;;;12.40;99.90;;;;;;6158330;23;20206;-83
2022/09/28 07:18:14;;;;;;;11.35;8.60;;;12.40;99.90;;;;;;6158569;23;20229;-84
2022/09/28 07:20:42;;;;;;;8.50;7.05;;;12.50;99.90;;;;;;6159571;23;20240;-77
2022/09/28 07:23:10;;;;;;;8.50;7.60;;;12.50;99.90;;;;;;6158430;23;20249;-82
2022/09/28 07:25:43;;;;;;;12.35;8.18;;;12.50;99.90;;;;;;6159460;23;20570;-78
2022/09/28 07:28:10;;;;;;;9.32;7.63;;;12.60;99.90;;;;;;6158159;23;20202;-79
2022/09/28 07:30:38;;;;;;;11.00;8.93;;;12.60;99.90;;;;;;6159229;23;20198;-84
2022/09/28 07:33:07;;;;;;;10.45;7.90;;;12.60;99.90;;;;;;6158580;23;20205;-83
2022/09/28 07:35:34;;;;;;;9.10;8.13;;;12.60;99.90;;;;;;6159324;23;20560;-84
2022/09/28 07:38:06;;;;;;;13.25;9.70;;;12.70;99.90;;;;;;6158841;23;20222;-84
2022/09/28 07:43:20;;;;;;;9.48;8.50;;;12.80;99.90;;;;;;6144738;23;20692;-78
2022/09/28 07:45:52;;;;;;;12.10;8.85;;;12.80;99.90;;;;;;6158632;23;20213;-78
2022/09/28 07:48:20;;;;;;;9.45;7.82;;;12.80;99.90;;;;;;6158123;23;20202;-78
2022/09/28 07:50:50;;;;;;;8.00;7.28;;;12.90;99.90;;;;;;6158515;23;20208;-78
2022/09/28 07:53:18;;;;;;;11.65;8.10;;;12.90;99.90;;;;;;6158112;23;20280;-82
2022/09/28 07:55:50;;;;;;;9.77;8.77;;;12.90;99.90;;;;;;6159917;23;20201;-83
2022/09/28 07:58:18;;;;;;;23.05;9.00;;;13.00;99.90;;;;;;6157207;23;20212;-81
2022/09/28 08:00:46;;;;;;;8.52;7.72;;;13.10;99.90;;;;;;6158892;23;20202;-83
2022/09/28 08:03:16;;;;;;;10.65;8.98;;;13.20;99.90;;;;;;6158434;23;20234;-83
2022/09/28 08:05:44;;;;;;;9.80;8.73;;;13.20;99.90;;;;;;6158505;23;20210;-83
2022/09/28 08:08:11;;;;;;;10.55;8.65;;;13.30;99.90;;;;;;6158932;23;20638;-83
2022/09/28 08:10:38;;;;;;;11.80;8.60;;;13.40;99.90;;;;;;6157214;23;20329;-83
2022/09/28 08:13:06;;;;;;;10.98;9.88;;;13.50;99.90;;;;;;6156499;23;20786;-83
2022/09/28 08:15:37;;;;;;;10.90;9.05;;;13.60;99.90;;;;;;6141348;23;20217;-83
2022/09/28 08:18:10;;;;;;;8.45;7.65;;;13.60;99.90;;;;;;6157015;23;20202;-78
2022/09/28 08:23:26;;;;;;;9.30;7.25;;;13.70;99.90;;;;;;6155795;23;20224;-77
2022/09/28 08:25:53;;;;;;;11.15;8.55;;;13.80;99.90;;;;;;6157306;23;20646;-78
2022/09/28 08:28:22;;;;;;;8.30;7.50;;;13.90;99.90;;;;;;6156474;23;20201;-77
2022/09/28 08:30:49;;;;;;;12.00;8.65;;;14.00;99.90;;;;;;6157187;23;20258;-83
2022/09/28 08:33:19;;;;;;;8.90;8.00;;;14.00;99.90;;;;;;6157612;23;20221;-77
2022/09/28 08:35:47;;;;;;;8.50;7.60;;;14.00;99.90;;;;;;6156672;23;20426;-77
2022/09/28 08:38:14;;;;;;;15.50;10.30;;;14.10;99.90;;;;;;6157089;23;20225;-77
2022/09/28 08:40:54;;;;;;;9.25;6.75;;;14.10;99.90;;;;;;6157380;23;20466;-83
2022/09/28 08:43:46;;;;;;;9.67;8.63;;;14.10;99.90;;;;;;6157802;23;20641;-84
2022/09/28 08:46:15;;;;;;;7.57;6.65;;;14.20;99.90;;;;;;6157669;23;20434;-84
2022/09/28 08:48:53;;;;;;;8.40;7.47;;;14.30;99.90;;;;;;6157460;23;20506;-78
2022/09/28 08:51:25;;;;;;;18.13;13.50;;;14.40;99.90;;;;;;6156463;23;20284;-83
2022/09/28 08:53:59;;;;;;;14.77;13.23;;;14.40;99.90;;;;;;6157818;23;20472;-84
2022/09/28 08:56:37;;;;;;;10.43;9.43;;;14.30;99.90;;;;;;6157345;23;20433;-83
2022/09/28 08:59:11;;;;;;;9.83;8.83;;;14.30;99.90;;;;;;6157025;23;20433;-77
2022/09/28 09:01:44;;;;;;;14.93;8.93;;;14.30;99.90;;;;;;6156996;23;20489;-83
2022/09/28 09:04:12;;;;;;;9.23;7.20;;;14.40;99.90;;;;;;6155604;23;20452;-83
2022/09/28 09:07:05;;;;;;;8.53;7.27;;;14.40;99.90;;;;;;6156990;23;20516;-84
2022/09/28 09:09:44;;;;;;;8.65;7.07;;;14.30;99.90;;;;;;6155827;23;20426;-78
2022/09/28 09:12:19;;;;;;;7.00;6.47;;;14.40;99.90;;;;;;6156553;23;20205;-78
2022/09/28 09:15:16;;;;;;;7.83;7.10;;;14.40;99.90;;;;;;6156362;23;20438;-77
2022/09/28 09:17:50;;;;;;;6.00;5.40;;;14.40;99.90;;;;;;6154858;23;20493;-82
2022/09/28 09:20:34;;;;;;;6.97;6.38;;;14.40;99.90;;;;;;6156798;23;20421;-77
2022/09/28 09:23:11;;;;;;;9.30;8.20;;;14.50;99.90;;;;;;6156466;23;20526;-83
2022/09/28 09:25:43;;;;;;;8.87;7.87;;;14.50;99.90;;;;;;6157274;23;20495;-83
2022/09/28 09:28:50;;;;;;;7.23;6.43;;;14.50;99.90;;;;;;6156375;23;20973;-83
2022/09/28 09:31:29;;;;;;;7.70;6.93;;;14.50;99.90;;;;;;6122342;23;20476;-83
2022/09/28 09:34:24;;;;;;;7.60;6.80;;;14.50;99.90;;;;;;6156227;23;20905;-82
2022/09/28 09:37:06;;;;;;;9.97;7.33;;;14.60;99.90;;;;;;6156738;23;20488;-84
2022/09/28 09:39:52;;;;;;;6.97;6.27;;;14.70;99.90;;;;;;6156779;23;20449;-84
2022/09/28 09:42:36;;;;;;;12.43;8.90;;;14.70;99.90;;;;;;6156380;23;20441;-79
2022/09/28 09:45:43;;;;;;;6.10;5.60;;;14.80;99.90;;;;;;6156332;23;20472;-78
2022/09/28 09:48:24;;;;;;;4.33;3.93;;;14.90;99.90;;;;;;6149656;23;20425;-84
2022/09/28 09:50:56;;;;;;;6.13;4.50;;;15.00;99.90;;;;;;6157535;23;20433;-83
2022/09/28 09:53:27;;;;;;;4.23;3.93;;;14.90;99.90;;;;;;6156589;23;20766;-77
2022/09/28 09:56:02;;;;;;;3.93;3.57;;;15.00;99.90;;;;;;6155583;23;20513;-77
2022/09/28 09:58:34;;;;;;;7.33;4.30;;;15.00;99.90;;;;;;6156823;23;20432;-77
2022/09/28 10:01:08;;;;;;;4.13;3.73;;;15.10;99.90;;;;;;6155471;23;20976;-77
2022/09/28 10:03:39;;;;;;;3.83;3.20;;;15.20;99.90;;;;;;6155187;23;20468;-83
2022/09/28 10:06:14;;;;;;;4.93;3.10;;;15.20;99.90;;;;;;6155730;23;20437;-83
2022/09/28 10:08:46;;;;;;;6.40;5.80;;;15.20;99.90;;;;;;6156205;23;20464;-77
2022/09/28 10:11:17;;;;;;;3.77;3.47;;;15.30;99.90;;;;;;6156551;23;20910;-84
2022/09/28 10:13:48;;;;;;;3.83;3.40;;;15.20;99.90;;;;;;6156941;23;20729;-84
2022/09/28 10:16:18;;;;;;;3.33;3.03;;;15.20;99.90;;;;;;6156438;23;20429;-84
2022/09/28 10:18:45;;;;;;;4.30;4.00;;;15.30;99.90;;;;;;6144229;23;20485;-84
2022/09/28 10:21:17;;;;;;;3.10;2.53;;;15.30;99.90;;;;;;6156454;23;20990;-84
2022/09/28 10:23:46;;;;;;;2.97;2.20;;;15.20;99.90;;;;;;6156031;23;20421;-83
2022/09/28 10:26:23;;;;;;;3.30;2.60;;;15.20;99.90;;;;;;6155519;23;20433;-83
2022/09/28 10:28:55;;;;;;;3.00;2.60;;;15.10;99.90;;;;;;6156293;23;20463;-77
2022/09/28 10:31:40;;;;;;;3.60;2.20;;;15.10;99.90;;;;;;6155256;23;20442;-84
2022/09/28 10:34:12;;;;;;;3.27;2.37;;;15.20;99.90;;;;;;6146949;23;20706;-80
2022/09/28 10:36:48;;;;;;;3.67;2.60;;;15.20;99.90;;;;;;6153892;23;20961;-84
2022/09/28 10:39:29;;;;;;;2.90;2.60;;;15.20;99.90;;;;;;6155400;23;20757;-83
2022/09/28 10:42:02;;;;;;;4.03;2.73;;;15.20;99.90;;;;;;6155029;23;20521;-84
2022/09/28 10:44:32;;;;;;;2.53;2.33;;;15.20;99.90;;;;;;6140807;23;20937;-79
2022/09/28 10:47:02;;;;;;;5.20;4.30;;;15.20;99.90;;;;;;6141949;23;20476;-78
2022/09/28 10:49:39;;;;;;;3.17;2.73;;;15.20;99.90;;;;;;6152010;23;20465;-85
2022/09/28 10:52:26;;;;;;;2.97;2.70;;;15.20;99.90;;;;;;6156368;23;20437;-79
2022/09/28 10:54:54;;;;;;;2.87;2.57;;;15.20;99.90;;;;;;6156285;23;20476;-84
2022/09/28 10:57:29;;;;;;;2.00;1.73;;;15.20;99.90;;;;;;6155070;23;20484;-84
2022/09/28 11:00:01;;;;;;;3.10;1.60;;;15.20;99.90;;;;;;6156516;23;20437;-83
2022/09/28 11:02:31;;;;;;;2.90;1.43;;;15.30;99.90;;;;;;6153281;23;20454;-78
2022/09/28 11:05:00;;;;;;;1.60;1.50;;;15.20;99.90;;;;;;6155989;23;20446;-77
2022/09/28 11:07:31;;;;;;;2.00;1.90;;;15.20;99.90;;;;;;6155708;23;20422;-84
2022/09/28 11:10:00;;;;;;;2.67;1.53;;;15.20;99.90;;;;;;6156168;23;20456;-84
2022/09/28 11:12:38;;;;;;;1.60;1.50;;;15.20;99.90;;;;;;6155499;23;20458;-84
2022/09/28 11:15:07;;;;;;;2.27;1.60;;;15.20;99.90;;;;;;6156246;23;20508;-84
2022/09/28 11:17:38;;;;;;;1.90;1.80;;;15.20;99.90;;;;;;6154949;23;20425;-83
2022/09/28 11:23:26;;;;;;;2.07;1.97;;;15.30;99.90;;;;;;6123336;23;20426;-84
2022/09/28 11:26:07;;;;;;;2.13;1.93;;;15.40;99.90;;;;;;6154213;23;20947;-84
2022/09/28 11:28:38;;;;;;;4.00;3.53;;;15.30;99.90;;;;;;6155589;23;20444;-84
2022/09/28 11:31:08;;;;;;;8.37;5.20;;;15.40;99.90;;;;;;6153375;23;20442;-78
2022/09/28 11:33:48;;;;;;;5.73;2.63;;;15.40;99.90;;;;;;6155944;23;20448;-84
2022/09/28 11:36:53;;;;;;;5.73;5.10;;;15.40;99.90;;;;;;6124054;23;20437;-79
2022/09/28 11:39:29;;;;;;;3.13;2.03;;;15.50;99.90;;;;;;6145161;23;20492;-78
2022/09/28 11:42:09;;;;;;;3.93;2.50;;;15.50;99.90;;;;;;6155673;23;20445;-84
2022/09/28 11:44:45;;;;;;;2.90;2.70;;;15.50;99.90;;;;;;6154234;23;20429;-84
2022/09/28 11:47:35;;;;;;;2.37;2.17;;;15.50;99.90;;;;;;6157009;23;20443;-79
2022/09/28 11:50:08;;;;;;;8.27;4.60;;;15.50;99.90;;;;;;6157581;23;20429;-84
2022/09/28 11:52:48;;;;;;;3.53;3.10;;;15.50;99.90;;;;;;6141482;23;20433;-85
2022/09/28 11:55:24;;;;;;;5.87;3.00;;;15.50;99.90;;;;;;6157872;23;20834;-83
2022/09/28 11:58:05;;;;;;;2.87;2.63;;;15.50;99.90;;;;;;6157504;23;20433;-83
2022/09/28 12:00:43;;;;;;;2.70;2.20;;;15.50;99.90;;;;;;6156579;23;20434;-77
2022/09/28 12:03:16;;;;;;;2.33;2.00;;;15.50;99.90;;;;;;6157042;23;20441;-82
2022/09/28 12:05:52;;;;;;;2.70;2.43;;;15.50;99.90;;;;;;6143353;23;20461;-78
2022/09/28 12:08:32;;;;;;;2.10;1.90;;;15.40;99.90;;;;;;6155042;23;20500;-84
2022/09/28 12:11:05;;;;;;;2.03;1.73;;;15.40;99.90;;;;;;6159267;23;20821;-79
2022/09/28 12:13:41;;;;;;;2.60;2.33;;;15.40;99.90;;;;;;6129957;23;20436;-78
2022/09/28 12:16:19;;;;;;;1.40;1.30;;;15.40;99.90;;;;;;6156803;23;20429;-78
2022/09/28 12:18:53;;;;;;;1.63;1.50;;;15.30;99.90;;;;;;6151556;23;20433;-83
2022/09/28 12:21:50;;;;;;;1.30;1.20;;;15.30;99.90;;;;;;6153315;23;20426;-77
2022/09/28 12:24:23;;;;;;;2.30;1.50;;;15.10;99.90;;;;;;6147794;23;20770;-77
2022/09/28 12:27:03;;;;;;;3.57;1.40;;;15.00;99.90;;;;;;6155306;23;20464;-78
2022/09/28 12:29:40;;;;;;;1.40;1.30;;;15.00;99.90;;;;;;6155215;23;20429;-79
2022/09/28 12:32:21;;;;;;;1.63;1.53;;;15.00;99.90;;;;;;6155271;23;20520;-80
2022/09/28 12:34:50;;;;;;;2.20;1.33;;;14.90;99.90;;;;;;6157184;23;20925;-76
2022/09/28 12:37:43;;;;;;;3.67;2.40;;;14.80;99.90;;;;;;6141849;23;20448;-77
2022/09/28 12:40:32;;;;;;;2.07;1.87;;;14.80;99.90;;;;;;6153383;23;20440;-83
2022/09/28 12:43:18;;;;;;;2.20;1.70;;;14.80;99.90;;;;;;6157434;23;20442;-78
2022/09/28 12:46:16;;;;;;;2.20;2.00;;;14.80;99.90;;;;;;6157023;23;20434;-78
2022/09/28 12:48:59;;;;;;;2.07;1.97;;;14.80;99.90;;;;;;6154932;23;20438;-78
2022/09/28 12:51:41;;;;;;;3.63;2.57;;;14.80;99.90;;;;;;6157947;23;20507;-84
2022/09/28 12:54:25;;;;;;;1.40;1.30;;;14.80;99.90;;;;;;6155166;23;20736;-84
2022/09/28 12:57:04;;;;;;;1.30;1.20;;;14.80;99.90;;;;;;6148189;23;20977;-83
2022/09/28 12:59:40;;;;;;;11.17;9.20;;;14.90;99.90;;;;;;6157840;23;20472;-83
2022/09/28 13:02:59;;;;;;;3.37;2.50;;;14.90;99.90;;;;;;6157129;23;20428;-83
2022/09/28 13:05:54;;;;;;;2.07;1.73;;;14.90;99.90;;;;;;6071689;23;20445;-78
2022/09/28 13:08:30;;;;;;;1.70;1.60;;;14.90;99.90;;;;;;6156919;23;20434;-78
2022/09/28 13:11:17;;;;;;;1.20;1.10;;;14.90;99.90;;;;;;6156780;23;20425;-85
2022/09/28 13:13:53;;;;;;;1.47;1.07;;;14.90;99.90;;;;;;6156829;23;20923;-78
2022/09/28 13:16:27;;;;;;;1.10;1.00;;;14.90;99.90;;;;;;6156548;23;20430;-78
2022/09/28 13:19:08;;;;;;;1.20;1.10;;;15.00;99.90;;;;;;6155557;23;20421;-78
2022/09/28 13:21:43;;;;;;;2.07;1.20;;;15.10;99.90;;;;;;6155992;23;20438;-77
2022/09/28 13:24:21;;;;;;;1.53;1.20;;;15.10;99.90;;;;;;6157228;23;20444;-83
2022/09/28 13:26:49;;;;;;;2.00;1.70;;;15.10;99.90;;;;;;6157463;23;20449;-78
2022/09/28 13:29:21;;;;;;;1.70;1.60;;;15.20;99.90;;;;;;6155507;23;20843;-84